Time;durP1;ratioP1;P1;durP2;ratioP2;P2;SDS_P1;SDS_P2;PMS_P1;PMS_P2;Temp;Humidity;BMP_temperature;BMP_pressure;BME280_temperature;BME280_humidity;BME280_pressure;Samples;Min_cycle;Max_cycle;Signal;HPM_P1;HPM_P2
2023/01/16 00:00:27;;;;;;;5.10;3.50;;;;;;;3.45;80.97;98711.91;209336;1286;139467;-65
2023/01/16 00:05:50;;;;;;;4.80;3.10;;;;;;;3.35;80.84;98710.52;209790;1285;223377;-66
2023/01/16 00:10:53;;;;;;;5.10;3.80;;;;;;;3.24;80.83;98706.95;208705;1292;141547;-65
2023/01/16 00:15:56;;;;;;;4.20;3.40;;;;;;;3.18;80.83;98707.19;208448;1294;141014;-65
2023/01/16 00:21:01;;;;;;;12.10;6.90;;;;;;;3.13;80.79;98707.06;208854;1284;139681;-66
2023/01/16 00:26:07;;;;;;;9.50;4.40;;;;;;;3.03;80.76;98712.44;208043;1286;139953;-65
2023/01/16 00:31:09;;;;;;;5.80;3.90;;;;;;;2.96;80.90;98719.48;209434;1285;139882;-65
2023/01/16 00:36:13;;;;;;;9.10;5.00;;;;;;;2.87;80.73;98718.86;208149;1292;140187;-66
2023/01/16 00:41:15;;;;;;;7.40;4.90;;;;;;;2.84;80.94;98717.41;208882;1294;142183;-66
2023/01/16 00:46:18;;;;;;;8.50;4.20;;;;;;;2.82;80.97;98720.34;208168;1292;140336;-65
2023/01/16 00:51:20;;;;;;;4.70;4.10;;;;;;;2.74;80.70;98719.49;208992;1286;139980;-63
2023/01/16 00:56:22;;;;;;;5.60;4.00;;;;;;;2.68;81.04;98719.00;208159;1294;140774;-67
2023/01/16 01:01:25;;;;;;;8.30;4.80;;;;;;;2.64;80.76;98723.05;208545;1292;141231;-62
2023/01/16 01:06:27;;;;;;;7.40;4.50;;;;;;;2.61;80.77;98718.94;208635;1294;140441;-63
2023/01/16 01:11:32;;;;;;;8.30;4.40;;;;;;;2.56;80.73;98719.96;210537;1285;140414;-66
2023/01/16 01:16:34;;;;;;;10.90;5.10;;;;;;;2.47;80.73;98718.98;210436;1285;140858;-66
2023/01/16 01:21:36;;;;;;;11.20;6.70;;;;;;;2.40;81.01;98708.09;208833;1294;139794;-64
2023/01/16 01:26:38;;;;;;;9.60;5.10;;;;;;;2.37;80.85;98710.00;210553;1293;139724;-65
2023/01/16 01:31:40;;;;;;;10.00;6.80;;;;;;;2.26;80.86;98700.71;209683;1288;140136;-63
2023/01/16 01:36:42;;;;;;;8.20;5.20;;;;;;;2.24;81.43;98701.89;208373;1286;141037;-66
2023/01/16 01:41:45;;;;;;;6.00;4.90;;;;;;;2.25;81.53;98698.29;209818;1285;140062;-65
2023/01/16 01:46:48;;;;;;;7.60;5.80;;;;;;;2.20;81.59;98695.63;209220;1292;139799;-66
2023/01/16 01:51:56;;;;;;;11.30;6.60;;;;;;;2.16;82.05;98690.16;209350;1292;139939;-66
2023/01/16 01:57:07;;;;;;;10.60;5.40;;;;;;;2.16;81.91;98688.39;208558;1292;139317;-66
2023/01/16 02:02:14;;;;;;;8.90;5.40;;;;;;;2.17;81.92;98686.85;208938;1288;141339;-64
2023/01/16 02:07:26;;;;;;;6.30;5.10;;;;;;;2.17;82.15;98683.05;208400;1292;140169;-66
2023/01/16 02:12:32;;;;;;;12.90;5.30;;;;;;;2.14;82.00;98678.58;208294;1294;140940;-65
2023/01/16 02:23:36;;;;;;;14.60;7.70;;;;;;;2.08;82.15;98671.36;208133;1285;247638;-65
2023/01/16 02:28:40;;;;;;;15.90;14.10;;;;;;;2.01;82.46;98666.41;208275;1279;140555;-63
2023/01/16 02:34:10;;;;;;;19.40;15.10;;;;;;;1.98;82.42;98665.48;208905;1292;233203;-66
2023/01/16 02:39:16;;;;;;;12.50;7.90;;;;;;;1.97;82.40;98662.08;209160;1284;140123;-65
2023/01/16 02:44:33;;;;;;;10.40;7.30;;;;;;;1.95;82.15;98660.83;208524;1284;139852;-66
2023/01/16 02:49:49;;;;;;;9.10;6.50;;;;;;;1.89;82.24;98662.45;208950;1286;139779;-65
2023/01/16 02:55:10;;;;;;;9.00;5.00;;;;;;;1.86;82.08;98665.65;209534;1285;139377;-68
2023/01/16 03:00:19;;;;;;;7.00;4.30;;;;;;;1.87;82.28;98658.69;209073;1285;139943;-68
2023/01/16 03:05:23;;;;;;;7.90;4.80;;;;;;;1.87;81.96;98656.42;210209;1298;140193;-68
2023/01/16 03:10:47;;;;;;;5.70;4.10;;;;;;;1.88;81.88;98663.83;210362;1292;140931;-70
2023/01/16 03:16:01;;;;;;;7.90;3.20;;;;;;;1.83;81.74;98662.59;208713;1291;139632;-66
2023/01/16 03:21:45;;;;;;;6.40;4.90;;;;;;;1.81;81.73;98651.26;210489;1294;138979;-66
2023/01/16 03:26:59;;;;;;;7.20;3.50;;;;;;;1.76;81.68;98648.09;210403;1295;139175;-66
2023/01/16 03:32:13;;;;;;;4.30;3.60;;;;;;;1.77;81.37;98646.28;209679;1295;139772;-68
2023/01/16 03:37:27;;;;;;;9.60;6.20;;;;;;;1.75;81.56;98641.79;209357;1291;140096;-67
2023/01/16 03:42:41;;;;;;;8.40;4.10;;;;;;;1.72;81.40;98642.40;208688;1286;141192;-65
2023/01/16 03:48:16;;;;;;;6.70;4.70;;;;;;;1.65;81.55;98632.17;209538;1292;139570;-66
2023/01/16 03:53:26;;;;;;;7.60;3.50;;;;;;;1.64;81.58;98633.88;208672;1300;140592;-66
2023/01/16 03:58:36;;;;;;;3.90;2.40;;;;;;;1.64;81.19;98635.38;209563;1292;139864;-67
2023/01/16 04:04:08;;;;;;;5.40;4.00;;;;;;;1.56;81.19;98630.70;208953;1278;141086;-65
2023/01/16 04:09:29;;;;;;;3.70;3.30;;;;;;;1.49;81.42;98634.11;207923;1292;139753;-65
2023/01/16 04:14:34;;;;;;;6.60;2.90;;;;;;;1.41;81.23;98636.77;208028;1292;139503;-65
2023/01/16 04:19:38;;;;;;;7.30;6.20;;;;;;;1.35;81.56;98634.18;208104;1299;142313;-65
2023/01/16 04:24:41;;;;;;;8.10;7.00;;;;;;;1.29;81.51;98636.67;208558;1291;140064;-66
2023/01/16 04:29:45;;;;;;;7.10;3.50;;;;;;;1.26;81.35;98638.50;208880;1291;139452;-66
2023/01/16 04:34:49;;;;;;;3.20;2.70;;;;;;;1.22;81.51;98633.98;207995;1286;139748;-65
2023/01/16 04:39:53;;;;;;;2.90;2.70;;;;;;;1.17;81.43;98634.77;208973;1285;139572;-66
2023/01/16 04:44:56;;;;;;;3.90;2.00;;;;;;;1.13;81.45;98631.48;209637;1285;139661;-66
2023/01/16 04:50:06;;;;;;;3.70;2.40;;;;;;;1.09;81.58;98624.89;209553;1295;140259;-66
2023/01/16 04:55:10;;;;;;;4.80;1.90;;;;;;;1.07;81.57;98616.56;210152;1292;138878;-66
2023/01/16 05:00:14;;;;;;;2.70;2.30;;;;;;;1.04;81.58;98618.34;210245;1293;140561;-65
2023/01/16 05:05:19;;;;;;;7.20;2.10;;;;;;;0.97;81.34;98612.31;210055;1287;139732;-66
2023/01/16 05:10:22;;;;;;;3.70;2.00;;;;;;;0.96;81.50;98613.84;210245;1292;140761;-66
2023/01/16 05:15:29;;;;;;;4.80;2.00;;;;;;;0.97;81.60;98607.59;210690;1298;140889;-66
2023/01/16 05:20:33;;;;;;;3.70;2.50;;;;;;;1.01;81.70;98600.33;210130;1295;139591;-67
2023/01/16 05:25:36;;;;;;;2.90;2.40;;;;;;;1.00;81.46;98600.65;209580;1295;139995;-66
2023/01/16 05:30:40;;;;;;;3.50;2.10;;;;;;;0.95;81.74;98600.72;209418;1286;140705;-66
2023/01/16 05:35:46;;;;;;;3.60;2.40;;;;;;;0.90;81.63;98596.67;208453;1286;139086;-65
2023/01/16 05:40:49;;;;;;;3.80;1.70;;;;;;;0.91;81.76;98588.50;209525;1286;139946;-66
2023/01/16 05:45:52;;;;;;;2.10;1.60;;;;;;;0.92;81.81;98580.51;207895;1286;140579;-65
2023/01/16 05:50:55;;;;;;;5.00;1.50;;;;;;;0.91;82.06;98574.91;209518;1288;140466;-64
2023/01/16 05:56:01;;;;;;;3.20;1.60;;;;;;;0.90;81.79;98571.20;208144;1291;139330;-65
2023/01/16 06:01:04;;;;;;;3.20;2.50;;;;;;;0.88;81.76;98564.49;208070;1286;140132;-65
2023/01/16 06:06:07;;;;;;;5.10;2.40;;;;;;;0.86;82.05;98563.64;207713;1286;139582;-65
2023/01/16 06:11:10;;;;;;;4.00;1.90;;;;;;;0.83;81.82;98564.36;208288;1292;139894;-65
2023/01/16 06:16:14;;;;;;;3.90;1.60;;;;;;;0.84;82.03;98566.30;208082;1291;140516;-65
2023/01/16 06:21:16;;;;;;;4.00;2.50;;;;;;;0.79;81.83;98576.63;208011;1291;139694;-65
2023/01/16 06:26:20;;;;;;;2.40;1.80;;;;;;;0.74;82.33;98572.94;209289;1286;140980;-66
2023/01/16 06:31:23;;;;;;;4.40;2.60;;;;;;;0.73;82.24;98566.92;208654;1291;141922;-65
2023/01/16 06:36:27;;;;;;;3.70;3.40;;;;;;;0.76;82.32;98567.30;209020;1286;143384;-65
2023/01/16 06:41:30;;;;;;;5.60;4.10;;;;;;;0.74;82.38;98563.34;209382;1290;140449;-70
2023/01/16 06:46:33;;;;;;;3.70;2.60;;;;;;;0.72;81.91;98560.23;209859;1288;140628;-66
2023/01/16 06:51:35;;;;;;;4.60;3.10;;;;;;;0.75;82.03;98554.90;209804;1292;140935;-66
2023/01/16 06:56:41;;;;;;;5.20;2.80;;;;;;;0.77;82.07;98549.63;209579;1286;141230;-65
2023/01/16 07:01:44;;;;;;;5.20;2.90;;;;;;;0.81;82.45;98547.38;210828;1290;139309;-66
2023/01/16 07:06:50;;;;;;;5.40;2.90;;;;;;;0.85;82.35;98545.85;210474;1295;139078;-66
2023/01/16 07:11:53;;;;;;;3.80;3.00;;;;;;;0.85;81.67;98545.27;209346;1298;140243;-65
2023/01/16 07:27:42;;;;;;;6.40;3.60;;;;;;;1.19;81.91;98548.77;208926;1296;140100;-65
2023/01/16 07:32:47;;;;;;;5.20;4.60;;;;;;;1.29;82.04;98538.50;209050;1293;140108;-65
2023/01/16 07:37:56;;;;;;;5.90;3.90;;;;;;;1.35;82.36;98544.02;208679;1296;139052;-67
2023/01/16 07:43:00;;;;;;;5.90;4.80;;;;;;;1.40;82.04;98541.23;208918;1294;139826;-66
2023/01/16 07:48:03;;;;;;;4.70;4.30;;;;;;;1.43;81.82;98542.89;209096;1291;142624;-66
2023/01/16 07:53:07;;;;;;;6.30;4.10;;;;;;;1.48;81.65;98533.80;208443;1289;141729;-67
2023/01/16 07:58:10;;;;;;;5.80;4.20;;;;;;;1.52;81.87;98536.30;208595;1292;140569;-66
2023/01/16 08:03:14;;;;;;;16.30;6.80;;;;;;;1.56;81.93;98531.86;208006;1285;151547;-67
2023/01/16 08:08:18;;;;;;;8.10;4.70;;;;;;;1.62;81.59;98521.37;209072;1296;140871;-66
2023/01/16 08:13:24;;;;;;;18.50;9.20;;;;;;;1.67;81.60;98511.63;208477;1285;140075;-66
2023/01/16 08:18:26;;;;;;;9.20;4.90;;;;;;;1.77;81.26;98506.71;209459;1290;139795;-66
2023/01/16 08:23:29;;;;;;;10.30;5.10;;;;;;;1.89;81.70;98502.24;209664;1284;139433;-66
2023/01/16 08:28:32;;;;;;;10.80;4.80;;;;;;;1.97;81.35;98494.00;210135;1294;140659;-67
2023/01/16 08:33:35;;;;;;;6.40;4.60;;;;;;;2.00;81.26;98491.73;208828;1298;506389;-66
2023/01/16 08:38:38;;;;;;;10.60;4.90;;;;;;;2.10;81.21;98484.64;208762;1291;141196;-65
2023/01/16 08:54:26;;;;;;;13.70;7.60;;;;;;;2.40;80.83;98472.93;210602;1295;225390;-67
2023/01/16 08:59:33;;;;;;;14.90;6.60;;;;;;;2.49;80.80;98467.34;210602;1298;140330;-67
2023/01/16 09:04:35;;;;;;;9.50;5.80;;;;;;;2.59;80.55;98460.69;210580;1295;139626;-67
2023/01/16 09:09:40;;;;;;;12.80;7.10;;;;;;;2.76;80.44;98455.27;210448;1294;140527;-66
2023/01/16 09:14:43;;;;;;;9.60;5.00;;;;;;;2.90;80.33;98446.20;209618;1298;139677;-67
2023/01/16 09:19:46;;;;;;;7.50;6.00;;;;;;;2.94;80.23;98449.21;210413;1290;140402;-66
2023/01/16 09:24:48;;;;;;;12.60;5.20;;;;;;;3.00;79.83;98445.11;209978;1285;221771;-67
2023/01/16 09:29:51;;;;;;;10.10;5.70;;;;;;;3.01;79.52;98445.21;209183;1294;141280;-66
2023/01/16 09:34:54;;;;;;;12.20;6.10;;;;;;;3.04;79.56;98442.24;209245;1289;141224;-66
2023/01/16 09:39:56;;;;;;;6.70;4.70;;;;;;;3.08;79.64;98437.02;209386;1291;141381;-66
2023/01/16 09:45:04;;;;;;;13.00;6.20;;;;;;;3.12;79.43;98436.34;208875;1288;139808;-65
2023/01/16 09:50:45;;;;;;;7.50;4.90;;;;;;;3.24;79.70;98435.82;208659;1298;140370;-66
2023/01/16 10:01:18;;;;;;;11.10;6.90;;;;;;;3.41;79.77;98424.92;209083;1292;141934;-66
2023/01/16 10:06:24;;;;;;;12.40;6.10;;;;;;;3.62;79.83;98420.39;208993;1292;139829;-66
2023/01/16 10:11:30;;;;;;;11.50;7.80;;;;;;;3.76;79.72;98412.13;208807;1294;153780;-66
2023/01/16 10:16:45;;;;;;;16.20;9.30;;;;;;;3.88;79.61;98403.74;209415;1291;140321;-67
2023/01/16 10:22:13;;;;;;;10.90;7.90;;;;;;;3.92;79.29;98386.86;209289;1292;141138;-66
2023/01/16 10:27:39;;;;;;;17.80;10.40;;;;;;;3.92;78.89;98371.60;209153;1295;141122;-66
2023/01/16 10:33:20;;;;;;;13.70;8.30;;;;;;;3.99;79.10;98356.58;209067;1292;139722;-67
2023/01/16 10:38:48;;;;;;;14.10;10.50;;;;;;;4.11;78.81;98351.44;208597;1291;220965;-66
2023/01/16 10:49:28;;;;;;;13.60;9.00;;;;;;;4.51;78.73;98340.52;209889;1292;224407;-68
2023/01/16 10:54:30;;;;;;;10.40;7.40;;;;;;;4.81;78.99;98320.68;210750;1301;141434;-66
2023/01/16 10:59:34;;;;;;;15.00;9.80;;;;;;;4.99;78.15;98308.42;210539;1298;141358;-67
2023/01/16 11:04:37;;;;;;;13.30;8.80;;;;;;;5.23;78.44;98285.45;210579;1295;140461;-68
2023/01/16 11:09:45;;;;;;;13.00;8.50;;;;;;;5.38;77.71;98268.35;208686;1300;141307;-67
2023/01/16 11:20:29;;;;;;;11.70;7.70;;;;;;;5.64;77.40;98236.02;210281;1286;140943;-67
2023/01/16 11:25:32;;;;;;;15.00;7.80;;;;;;;5.83;76.92;98229.09;208514;1294;141754;-67
2023/01/16 11:30:40;;;;;;;10.60;6.30;;;;;;;6.02;76.80;98230.26;207873;1292;139756;-67
2023/01/16 11:35:50;;;;;;;12.50;7.10;;;;;;;6.11;75.92;98232.23;207182;1288;139212;-67
2023/01/16 11:40:56;;;;;;;9.80;6.70;;;;;;;6.26;76.27;98222.71;207403;1287;141088;-67
2023/01/16 11:46:11;;;;;;;10.60;7.60;;;;;;;6.32;75.52;98199.83;210003;1292;139164;-67
2023/01/16 11:51:23;;;;;;;9.20;6.40;;;;;;;6.42;75.55;98186.58;208092;1294;247453;-66
2023/01/16 11:57:05;;;;;;;12.70;7.30;;;;;;;6.38;74.44;98173.56;208457;1290;139325;-66
2023/01/16 12:02:41;;;;;;;9.00;5.70;;;;;;;6.27;74.46;98157.48;207482;1287;142308;-68
2023/01/16 12:07:52;;;;;;;8.40;4.60;;;;;;;6.21;73.64;98142.63;209048;1292;141176;-68
2023/01/16 12:18:41;;;;;;;10.00;5.10;;;;;;;6.26;73.60;98122.75;209588;1295;218522;-68
2023/01/16 12:24:10;;;;;;;9.10;4.40;;;;;;;6.26;72.92;98117.23;207714;1285;143138;-66
2023/01/16 12:29:51;;;;;;;7.60;4.30;;;;;;;6.24;72.74;98112.56;210796;1295;139489;-67
2023/01/16 12:35:16;;;;;;;11.30;6.30;;;;;;;6.31;72.97;98099.59;208735;1294;222885;-67
2023/01/16 12:40:30;;;;;;;12.10;6.50;;;;;;;6.45;73.13;98086.34;207880;1286;139686;-67
2023/01/16 12:46:11;;;;;;;11.10;7.60;;;;;;;6.49;72.59;98072.71;210658;1294;140770;-66
2023/01/16 12:51:45;;;;;;;7.70;5.60;;;;;;;6.38;72.04;98067.38;210577;1295;140453;-66
2023/01/16 12:57:16;;;;;;;10.60;5.40;;;;;;;6.35;71.93;98058.56;210236;1298;140060;-68
2023/01/16 13:02:30;;;;;;;9.60;6.20;;;;;;;6.34;71.73;98052.20;210719;1293;140392;-68
2023/01/16 13:07:39;;;;;;;9.00;6.60;;;;;;;6.28;71.57;98044.30;210334;1295;139378;-67
2023/01/16 13:18:19;;;;;;;10.70;7.40;;;;;;;6.23;71.18;98038.35;208775;1295;140090;-66
2023/01/16 13:23:27;;;;;;;13.50;9.70;;;;;;;6.16;71.08;98037.16;207852;1295;140840;-67
2023/01/16 13:28:42;;;;;;;17.40;8.40;;;;;;;5.92;71.05;98028.47;207713;1285;140009;-66
2023/01/16 13:33:49;;;;;;;11.70;9.40;;;;;;;5.61;71.41;98025.46;207475;1285;139324;-67
2023/01/16 13:39:19;;;;;;;21.40;13.40;;;;;;;5.46;71.83;98022.55;207438;1285;140421;-67
2023/01/16 13:50:16;;;;;;;21.60;12.00;;;;;;;4.95;72.45;98014.67;209301;1292;140070;-66
2023/01/16 13:55:32;;;;;;;19.10;13.60;;;;;;;4.74;73.11;98006.54;209014;1292;143083;-64
2023/01/16 14:00:37;;;;;;;24.50;13.30;;;;;;;4.62;73.41;98006.27;207493;1294;141083;-67
2023/01/16 14:05:51;;;;;;;19.50;13.60;;;;;;;4.50;73.68;98004.50;207690;1292;141141;-64
2023/01/16 14:10:58;;;;;;;23.00;13.70;;;;;;;4.34;73.67;97999.03;208528;1286;140049;-63
2023/01/16 14:16:31;;;;;;;21.80;12.00;;;;;;;4.25;73.79;97991.01;208701;1292;139804;-67
2023/01/16 14:21:38;;;;;;;20.50;13.30;;;;;;;4.10;73.89;97976.08;209393;1294;140432;-67
2023/01/16 14:26:56;;;;;;;22.80;11.70;;;;;;;4.00;74.25;97966.55;207963;1292;140816;-67
2023/01/16 14:32:14;;;;;;;16.00;12.20;;;;;;;3.87;74.16;97968.05;210621;1295;140364;-67
2023/01/16 14:37:24;;;;;;;21.10;12.50;;;;;;;3.72;74.50;97965.54;208991;1292;142403;-67
2023/01/16 14:59:17;;;;;;;93.50;34.10;;;;;;;3.37;74.79;97937.39;210451;1288;140491;-67
2023/01/16 15:04:24;;;;;;;84.40;33.40;;;;;;;3.28;75.16;97924.31;209357;1292;139879;-68
2023/01/16 15:09:29;;;;;;;43.10;16.70;;;;;;;3.19;75.26;97912.58;210215;1285;142272;-67
2023/01/16 15:14:33;;;;;;;33.20;15.50;;;;;;;3.09;75.28;97912.16;209612;1279;140780;-67
2023/01/16 15:25:31;;;;;;;62.30;21.90;;;;;;;2.84;75.71;97895.98;208828;1292;140885;-66
2023/01/16 15:30:35;;;;;;;47.50;22.00;;;;;;;2.70;76.16;97888.63;209185;1285;140389;-66
2023/01/16 15:35:37;;;;;;;30.20;14.30;;;;;;;2.64;76.42;97885.44;210711;1278;141297;-67
2023/01/16 15:40:49;;;;;;;33.70;17.40;;;;;;;2.60;76.75;97875.99;208402;1279;139625;-67
2023/01/16 15:46:34;;;;;;;44.40;20.60;;;;;;;2.54;77.05;97867.11;209154;1285;141053;-64
2023/01/16 15:51:37;;;;;;;37.10;16.50;;;;;;;2.47;77.33;97863.10;209190;1285;245784;-65
2023/01/16 15:56:44;;;;;;;27.30;13.60;;;;;;;2.40;77.69;97853.86;207508;1285;141989;-63
2023/01/16 16:02:29;;;;;;;26.90;13.40;;;;;;;2.32;78.14;97844.88;208962;1278;221926;-63
2023/01/16 16:07:33;;;;;;;20.30;13.30;;;;;;;2.25;78.57;97840.21;208622;1285;140877;-63
2023/01/16 16:12:36;;;;;;;30.90;16.80;;;;;;;2.21;78.89;97845.25;209741;1287;141113;-63
2023/01/16 16:17:57;;;;;;;18.90;11.60;;;;;;;2.21;79.29;97838.90;209220;1294;140328;-64
2023/01/16 16:23:06;;;;;;;21.70;11.90;;;;;;;2.19;79.41;97829.31;207530;1292;140326;-61
2023/01/16 16:28:33;;;;;;;26.00;13.90;;;;;;;2.14;79.86;97826.59;209414;1284;140284;-63
2023/01/16 16:33:37;;;;;;;31.30;16.80;;;;;;;2.12;80.19;97811.14;210558;1287;142059;-62
2023/01/16 16:38:44;;;;;;;32.40;17.50;;;;;;;2.09;80.46;97802.52;210565;1294;140510;-63
2023/01/16 16:43:57;;;;;;;30.60;13.60;;;;;;;2.06;80.64;97800.39;210474;1294;140478;-65
2023/01/16 16:49:22;;;;;;;32.00;14.70;;;;;;;2.02;81.00;97786.33;210194;1295;142669;-65
2023/01/16 16:54:27;;;;;;;24.60;13.00;;;;;;;2.01;81.14;97780.24;210017;1292;143195;-65
2023/01/16 16:59:32;;;;;;;20.10;11.80;;;;;;;1.99;81.29;97773.48;208475;1291;140450;-66
2023/01/16 17:04:36;;;;;;;19.40;14.30;;;;;;;1.97;81.67;97767.45;209532;1292;140743;-63
2023/01/16 17:09:40;;;;;;;21.60;14.20;;;;;;;1.93;81.89;97758.77;209908;1292;141373;-66
2023/01/16 17:14:45;;;;;;;22.00;14.80;;;;;;;1.94;82.28;97752.43;209642;1292;141016;-66
2023/01/16 17:19:50;;;;;;;22.90;12.60;;;;;;;1.98;82.38;97744.59;207679;1284;141318;-66
2023/01/16 17:24:55;;;;;;;30.90;16.30;;;;;;;2.01;82.53;97726.63;209274;1294;141112;-66
2023/01/16 17:29:59;;;;;;;27.80;14.40;;;;;;;2.04;82.54;97727.97;208485;1287;142708;-65
2023/01/16 17:35:05;;;;;;;19.70;12.60;;;;;;;2.06;82.68;97720.13;208126;1285;140656;-65
2023/01/16 17:40:12;;;;;;;18.10;11.90;;;;;;;2.07;82.93;97720.45;208257;1286;139863;-66
2023/01/16 17:45:59;;;;;;;17.80;12.60;;;;;;;2.10;82.89;97716.27;207853;1292;140624;-65
2023/01/16 17:51:03;;;;;;;14.10;11.20;;;;;;;2.13;83.21;97705.09;207789;1285;142170;-63
2023/01/16 17:56:10;;;;;;;17.70;12.20;;;;;;;2.16;82.96;97702.19;208491;1286;140429;-63
2023/01/16 18:01:18;;;;;;;20.90;12.20;;;;;;;2.21;83.42;97699.58;208662;1285;140060;-64
2023/01/16 18:06:23;;;;;;;16.30;10.90;;;;;;;2.27;83.57;97687.46;208992;1294;140851;-64
2023/01/16 18:22:10;;;;;;;16.80;11.40;;;;;;;2.40;83.47;97669.95;209396;1292;142495;-64
2023/01/16 18:27:15;;;;;;;17.00;11.30;;;;;;;2.45;83.43;97662.67;208747;1285;141148;-65
2023/01/16 18:32:19;;;;;;;17.50;12.60;;;;;;;2.48;83.40;97656.58;209834;1292;141670;-62
2023/01/16 18:37:35;;;;;;;14.20;10.00;;;;;;;2.52;83.36;97650.66;210477;1293;140399;-64
2023/01/16 19:04:12;;;;;;;15.80;11.50;;;;;;;2.82;83.43;97605.33;208608;1285;142090;-67
2023/01/16 19:09:18;;;;;;;21.90;13.30;;;;;;;2.83;83.19;97599.73;207034;1278;141104;-67
2023/01/16 19:14:26;;;;;;;21.30;13.90;;;;;;;2.86;83.36;97584.52;207325;1285;140104;-64
2023/01/16 19:19:31;;;;;;;19.90;12.00;;;;;;;2.84;83.19;97569.64;208273;1294;140570;-63
2023/01/16 19:24:36;;;;;;;13.20;10.80;;;;;;;2.87;83.18;97562.95;207510;1294;139996;-62
2023/01/16 19:29:40;;;;;;;15.50;10.90;;;;;;;2.85;83.32;97551.93;209015;1284;140679;-62
2023/01/16 19:34:44;;;;;;;17.40;11.80;;;;;;;2.87;83.33;97544.45;210036;1294;142305;-62
2023/01/16 19:39:47;;;;;;;16.30;10.50;;;;;;;2.90;83.34;97529.12;209823;1294;140965;-62
2023/01/16 19:50:22;;;;;;;31.80;12.50;;;;;;;2.96;83.10;97507.48;208845;1292;140881;-64
2023/01/16 19:55:27;;;;;;;74.40;27.50;;;;;;;2.95;83.11;97496.80;208870;1292;248305;-64
2023/01/16 20:00:31;;;;;;;28.60;12.00;;;;;;;2.94;83.26;97485.86;209332;1295;140541;-64
2023/01/16 20:05:34;;;;;;;31.40;13.60;;;;;;;2.93;83.17;97472.96;209567;1294;139944;-63
2023/01/16 20:10:39;;;;;;;48.70;15.90;;;;;;;2.93;83.40;97465.17;208391;1294;145913;-62
2023/01/16 20:15:43;;;;;;;28.40;11.70;;;;;;;3.00;83.30;97455.13;209551;1294;142244;-62
2023/01/16 20:20:48;;;;;;;37.60;16.60;;;;;;;3.02;82.96;97444.41;208443;1285;140866;-66
2023/01/16 20:25:51;;;;;;;23.00;12.30;;;;;;;3.04;83.00;97426.18;209605;1285;139859;-62
2023/01/16 20:30:58;;;;;;;28.80;14.80;;;;;;;3.00;83.01;97423.39;208427;1287;139702;-62
2023/01/16 20:36:06;;;;;;;44.80;18.60;;;;;;;3.01;83.06;97418.77;209608;1278;814826;-63
2023/01/16 20:46:38;;;;;;;34.40;16.10;;;;;;;3.13;83.02;97402.80;207755;1284;139648;-64
2023/01/16 20:51:40;;;;;;;23.00;11.90;;;;;;;3.13;82.93;97397.16;207623;1288;140829;-65
2023/01/16 20:56:44;;;;;;;39.40;16.40;;;;;;;3.16;82.93;97386.73;208900;1294;140739;-65
2023/01/16 21:01:48;;;;;;;36.30;16.50;;;;;;;3.17;82.83;97374.20;207987;1285;140477;-66
2023/01/16 21:06:51;;;;;;;44.00;21.60;;;;;;;3.18;82.62;97368.05;209080;1298;141501;-67
2023/01/16 21:22:44;;;;;;;24.70;12.50;;;;;;;3.26;82.75;97337.26;207517;1286;235107;-65
2023/01/16 21:27:50;;;;;;;;;;;;;;;3.27;82.86;97332.01;207423;1291;141263;-66
2023/01/16 21:32:59;;;;;;;24.40;12.60;;;;;;;3.26;82.91;97327.31;209503;1292;126041;-64
2023/01/16 21:38:07;;;;;;;;;;;;;;;3.29;82.87;97334.98;209326;1286;141488;-65
2023/01/16 21:48:36;;;;;;;17.60;10.90;;;;;;;3.26;82.91;97329.05;209617;1291;223394;-65
2023/01/16 21:53:45;;;;;;;18.00;11.10;;;;;;;3.31;82.88;97326.05;207872;1285;247776;-65
2023/01/16 21:58:48;;;;;;;25.30;14.50;;;;;;;3.32;83.06;97319.16;208080;1292;141074;-64
2023/01/16 22:03:53;;;;;;;23.50;14.80;;;;;;;3.31;82.79;97312.04;208879;1292;140216;-65
2023/01/16 22:08:57;;;;;;;20.60;10.80;;;;;;;3.28;82.74;97308.95;209228;1292;141839;-65
2023/01/16 22:19:24;;;;;;;18.80;11.80;;;;;;;3.33;82.89;97291.85;210074;1292;140375;-65
2023/01/16 22:24:27;;;;;;;19.10;11.60;;;;;;;3.35;82.91;97277.64;209091;1291;139959;-65
2023/01/16 22:29:33;;;;;;;41.90;17.90;;;;;;;3.36;82.86;97269.96;210528;1279;140583;-65
2023/01/16 22:34:40;;;;;;;20.60;11.30;;;;;;;3.40;82.86;97259.72;208142;1284;141411;-65
2023/01/16 22:39:46;;;;;;;18.20;11.60;;;;;;;3.41;82.77;97250.88;210544;1286;141980;-66
2023/01/16 22:50:11;;;;;;;17.10;9.60;;;;;;;3.35;82.87;97243.73;210516;1294;140627;-65
2023/01/16 22:55:15;;;;;;;15.00;10.40;;;;;;;3.37;82.98;97243.31;209572;1291;140024;-66
2023/01/16 23:00:22;;;;;;;19.70;12.90;;;;;;;3.38;82.72;97236.56;210172;1300;141838;-65
2023/01/16 23:05:28;;;;;;;15.30;11.40;;;;;;;3.35;82.90;97236.05;210496;1294;140298;-65
2023/01/16 23:10:34;;;;;;;20.70;12.00;;;;;;;3.34;82.98;97227.08;208411;1286;141390;-67
2023/01/16 23:15:38;;;;;;;15.40;10.40;;;;;;;3.34;83.12;97209.86;208611;1293;142348;-64
2023/01/16 23:20:46;;;;;;;13.10;10.90;;;;;;;3.34;83.30;97202.17;209529;1286;140993;-64
2023/01/16 23:25:53;;;;;;;20.10;11.20;;;;;;;3.27;83.11;97190.21;209960;1298;140303;-66
2023/01/16 23:31:06;;;;;;;17.50;11.70;;;;;;;3.18;83.32;97180.37;209346;1292;140634;-65
2023/01/16 23:36:13;;;;;;;21.60;13.10;;;;;;;3.13;83.70;97183.59;208624;1294;141216;-64
2023/01/16 23:46:46;;;;;;;14.80;10.20;;;;;;;3.12;83.91;97168.73;207773;1286;141358;-65
2023/01/16 23:51:52;;;;;;;17.40;12.40;;;;;;;3.10;84.12;97159.28;210050;1302;140364;-65
2023/01/16 23:56:56;;;;;;;20.50;12.90;;;;;;;3.06;84.30;97144.27;208639;1292;142616;-65
